Time;durP1;ratioP1;P1;durP2;ratioP2;P2;SDS_P1;SDS_P2;PMS_P1;PMS_P2;Temp;Humidity;BMP_temperature;BMP_pressure;BME280_temperature;BME280_humidity;BME280_pressure;Samples;Min_cycle;Max_cycle;Signal;HPM_P1;HPM_P2
2021/11/09 00:00:45;;;;;;;;;;;;;;;7.72;97.82;101806.69;112743;1194;62263;-77
2021/11/09 00:03:12;;;;;;;;;;;;;;;7.73;97.91;101808.17;112825;1195;61578;-76
2021/11/09 00:05:53;;;;;;;;;;;;;;;7.73;97.68;101811.03;112897;1194;75680;-77
2021/11/09 00:08:25;;;;;;;;;;;;;;;7.74;97.71;101818.13;113054;1195;71036;-76
2021/11/09 00:10:51;;;;;;;;;;;;;;;7.76;97.69;101817.99;113107;1195;73726;-75
2021/11/09 00:13:28;;;;;;;;;;;;;;;7.77;97.86;101817.77;113083;1195;60264;-78
2021/11/09 00:15:54;;;;;;;;;;;;;;;7.75;98.06;101819.45;112738;1195;61087;-78
2021/11/09 00:18:21;;;;;;;;;;;;;;;7.73;97.84;101817.84;112740;1196;75979;-81
2021/11/09 00:20:47;;;;;;;;;;;;;;;7.73;98.01;101817.17;112520;1196;70298;-77
2021/11/09 00:23:15;;;;;;;;;;;;;;;7.72;97.93;101817.82;112732;1194;73535;-76
2021/11/09 00:25:42;;;;;;;;;;;;;;;7.70;97.94;101812.12;112781;1193;63014;-77
2021/11/09 00:28:09;;;;;;;;;;;;;;;7.69;97.97;101811.70;112926;1195;59733;-77
2021/11/09 00:30:36;;;;;;;;;;;;;;;7.66;97.91;101810.95;112858;1195;74672;-77
2021/11/09 00:33:03;;;;;;;;;;;;;;;7.66;98.53;101811.81;112711;1196;72243;-77
2021/11/09 00:35:34;;;;;;;;;;;;;;;7.65;98.44;101811.84;112670;1195;72565;-77
2021/11/09 00:38:02;;;;;;;;;;;;;;;7.65;98.06;101818.06;112963;1194;61930;-75
2021/11/09 00:40:30;;;;;;;;;;;;;;;7.64;98.64;101825.90;113005;1195;61055;-75
2021/11/09 00:42:57;;;;;;;;;;;;;;;7.63;98.52;101828.92;112712;1196;75570;-77
2021/11/09 00:45:24;;;;;;;;;;;;;;;7.64;99.03;101832.38;112729;1195;71141;-79
2021/11/09 00:47:51;;;;;;;;;;;;;;;7.65;98.43;101834.55;112618;1194;74006;-77
2021/11/09 00:50:19;;;;;;;;;;;;;;;7.66;98.77;101837.87;112622;1196;61914;-78
2021/11/09 00:52:48;;;;;;;;;;;;;;;7.66;98.88;101829.38;112549;1195;61009;-77
2021/11/09 00:55:14;;;;;;;;;;;;;;;7.68;98.72;101831.17;112450;1195;77221;-80
2021/11/09 00:57:42;;;;;;;;;;;;;;;7.69;98.43;101827.05;112529;1195;72237;-75
2021/11/09 01:00:13;;;;;;;;;;;;;;;7.68;98.64;101830.41;112637;1195;72543;-76
2021/11/09 01:02:41;;;;;;;;;;;;;;;7.69;98.77;101829.49;112569;1196;63041;-76
2021/11/09 01:05:09;;;;;;;;;;;;;;;7.69;98.41;101829.84;112540;1195;61418;-76
2021/11/09 01:07:35;;;;;;;;;;;;;;;7.69;98.19;101829.71;112415;1195;74401;-76
2021/11/09 01:10:03;;;;;;;;;;;;;;;7.67;98.61;101827.52;112604;1194;61183;-77
2021/11/09 01:12:30;;;;;;;;;;;;;;;7.66;98.28;101825.86;112692;1195;72663;-77
2021/11/09 01:14:57;;;;;;;;;;;;;;;7.65;98.47;101823.34;112571;1195;61229;-76
2021/11/09 01:17:24;;;;;;;;;;;;;;;7.63;98.31;101821.89;112691;1194;60156;-76
2021/11/09 01:19:51;;;;;;;;;;;;;;;7.62;98.68;101823.74;112674;1195;74979;-77
2021/11/09 01:22:17;;;;;;;;;;;;;;;7.61;98.56;101827.70;112775;1194;71050;-76
2021/11/09 01:24:45;;;;;;;;;;;;;;;7.59;98.41;101828.92;112528;1195;74266;-74
2021/11/09 01:27:12;;;;;;;;;;;;;;;7.58;98.56;101829.35;112635;1195;61014;-76
2021/11/09 01:29:50;;;;;;;;;;;;;;;;;;;;;
2021/11/09 01:32:16;;;;;;;;;;;;;;;7.57;98.50;101826.99;112611;1195;76087;-77
2021/11/09 01:34:46;;;;;;;;;;;;;;;7.59;98.78;101825.75;112596;1194;71120;-77
2021/11/09 01:37:12;;;;;;;;;;;;;;;7.61;98.63;101828.23;112834;1194;72783;-77
2021/11/09 01:39:41;;;;;;;;;;;;;;;7.62;98.38;101824.27;113197;1195;61005;-77
2021/11/09 01:42:08;;;;;;;;;;;;;;;7.63;98.69;101821.05;113004;1195;61139;-78
2021/11/09 01:44:35;;;;;;;;;;;;;;;7.64;98.65;101828.38;112653;1195;75755;-78
2021/11/09 01:47:05;;;;;;;;;;;;;;;7.63;98.53;101826.14;112574;1195;71068;-76
2021/11/09 01:49:37;;;;;;;;;;;;;;;7.63;98.43;101821.91;112643;1194;73835;-78
2021/11/09 01:52:04;;;;;;;;;;;;;;;7.60;98.99;101823.70;112510;1195;61035;-78
2021/11/09 01:54:32;;;;;;;;;;;;;;;7.60;98.69;101824.85;112597;1195;60324;-77
2021/11/09 01:56:59;;;;;;;;;;;;;;;7.58;99.04;101821.65;112750;1194;74609;-77
2021/11/09 01:59:31;;;;;;;;;;;;;;;7.58;99.13;101820.77;112665;1195;71328;-78
2021/11/09 02:01:58;;;;;;;;;;;;;;;7.58;99.17;101823.42;112576;1195;72555;-78
2021/11/09 02:04:30;;;;;;;;;;;;;;;7.56;98.96;101822.11;112517;1195;62112;-78
2021/11/09 02:06:56;;;;;;;;;;;;;;;7.54;98.83;101820.17;112690;1195;60941;-77
2021/11/09 02:09:23;;;;;;;;;;;;;;;7.52;99.04;101820.91;112520;1195;61063;-77
2021/11/09 02:11:49;;;;;;;;;;;;;;;7.48;99.16;101821.02;112500;1195;61048;-77
2021/11/09 02:14:16;;;;;;;;;;;;;;;7.46;99.18;101820.16;112689;1195;61062;-75
2021/11/09 02:16:43;;;;;;;;;;;;;;;7.44;98.99;101819.48;112664;1195;60955;-77
2021/11/09 02:19:09;;;;;;;;;;;;;;;7.39;98.98;101816.20;112820;1195;60989;-76
2021/11/09 02:21:36;;;;;;;;;;;;;;;7.32;99.18;101816.16;112811;1193;74574;-76
2021/11/09 02:24:03;;;;;;;;;;;;;;;7.26;99.30;101824.23;112795;1195;71947;-76
2021/11/09 02:26:39;;;;;;;;;;;;;;;7.22;99.67;101825.97;112730;1196;74566;-77
2021/11/09 02:29:06;;;;;;;;;;;;;;;7.19;99.44;101822.71;112651;1194;61908;-76
2021/11/09 02:31:33;;;;;;;;;;;;;;;7.18;99.79;101823.45;112548;1195;59871;-76
2021/11/09 02:34:00;;;;;;;;;;;;;;;7.17;99.72;101825.86;112609;1194;76007;-76
2021/11/09 02:36:32;;;;;;;;;;;;;;;7.15;99.95;101828.44;112643;1195;71279;-77
2021/11/09 02:38:59;;;;;;;;;;;;;;;7.14;99.92;101826.77;112640;1193;72853;-76
2021/11/09 02:41:26;;;;;;;;;;;;;;;7.14;99.89;101828.52;112520;1195;62096;-77
2021/11/09 02:43:54;;;;;;;;;;;;;;;7.14;100.00;101832.59;112646;1195;61053;-77
2021/11/09 02:49:10;;;;;;;;;;;;;;;7.17;99.99;101839.38;112617;1195;70750;-77
2021/11/09 02:51:42;;;;;;;;;;;;;;;7.18;99.90;101841.93;112599;1195;73867;-77
2021/11/09 02:57:16;;;;;;;;;;;;;;;7.18;99.97;101845.65;112405;1195;61044;-76
2021/11/09 03:00:03;;;;;;;;;;;;;;;7.19;99.94;101848.05;112550;1195;74626;-77
2021/11/09 03:02:38;;;;;;;;;;;;;;;7.18;100.00;101843.02;112597;1195;70975;-77
2021/11/09 03:05:20;;;;;;;;;;;;;;;7.19;100.00;101838.36;112221;1195;73848;-77
2021/11/09 03:07:54;;;;;;;;;;;;;;;7.18;99.93;101833.33;112753;1194;61670;-77
2021/11/09 03:12:54;;;;;;;;;;;;;;;7.10;99.85;101839.06;113067;1195;74902;-77
2021/11/09 03:15:26;;;;;;;;;;;;;;;7.06;99.92;101840.80;113125;1194;71004;-77
2021/11/09 03:17:58;;;;;;;;;;;;;;;7.03;99.96;101846.31;113015;1196;73711;-74
2021/11/09 03:20:39;;;;;;;;;;;;;;;7.01;100.00;101848.05;112643;1194;61434;-80
2021/11/09 03:40:12;;;;;;;;;;;;;;;7.02;100.00;101870.89;112111;1198;75636;-77
2021/11/09 03:45:32;;;;;;;;;;;;;;;7.06;100.00;101877.40;112686;1195;72680;-77
2021/11/09 03:48:05;;;;;;;;;;;;;;;7.08;100.00;101879.54;112535;1195;62258;-78
2021/11/09 03:50:59;;;;;;;;;;;;;;;7.12;100.00;101882.02;112738;1194;61154;-78
2021/11/09 03:53:41;;;;;;;;;;;;;;;7.16;100.00;101884.14;112698;1194;74725;-79
2021/11/09 03:56:15;;;;;;;;;;;;;;;7.19;100.00;101888.16;112742;1194;71041;-78
2021/11/09 03:58:45;;;;;;;;;;;;;;;7.19;100.00;101889.17;112572;1195;71962;-78
2021/11/09 04:01:16;;;;;;;;;;;;;;;7.20;100.00;101888.92;112642;1194;63001;-78
2021/11/09 04:04:28;;;;;;;;;;;;;;;7.22;100.00;101891.27;112537;1195;61257;-78
2021/11/09 04:07:08;;;;;;;;;;;;;;;7.22;100.00;101899.14;112463;1195;74950;-77
2021/11/09 04:20:42;;;;;;;;;;;;;;;7.29;100.00;101899.29;112372;1195;74510;-77
2021/11/09 04:45:27;;;;;;;;;;;;;;;7.42;100.00;101909.90;112879;1195;60873;-76
2021/11/09 05:09:09;;;;;;;;;;;;;;;7.54;100.00;101920.72;112606;1195;62994;-79
2021/11/09 05:11:41;;;;;;;;;;;;;;;7.53;100.00;101921.80;112543;1195;61160;-77
2021/11/09 05:14:15;;;;;;;;;;;;;;;7.55;100.00;101924.34;112531;1195;74528;-78
2021/11/09 05:17:28;;;;;;;;;;;;;;;7.58;99.97;101927.98;100392;1339;598953;-78
2021/11/09 05:19:55;;;;;;;;;;;;;;;7.57;99.99;101925.60;101790;1325;59423;-76
2021/11/09 05:22:22;;;;;;;;;;;;;;;7.57;99.95;101923.61;101686;1325;62081;-77
2021/11/09 05:24:48;;;;;;;;;;;;;;;7.57;99.99;101924.33;102500;1318;72786;-78
2021/11/09 05:27:17;;;;;;;;;;;;;;;7.59;100.00;101922.78;102401;1319;59862;-78
2021/11/09 05:29:45;;;;;;;;;;;;;;;7.60;100.00;101926.52;102260;1319;172693;-77
2021/11/09 05:32:12;;;;;;;;;;;;;;;7.60;99.98;101921.81;102654;1316;62106;-77
2021/11/09 05:34:39;;;;;;;;;;;;;;;7.60;100.00;101931.14;102553;1316;60471;-77
2021/11/09 05:37:09;;;;;;;;;;;;;;;7.61;99.93;101933.48;102631;1313;73765;-78
2021/11/09 05:39:46;;;;;;;;;;;;;;;7.63;100.00;101937.98;102518;1316;73540;-78
2021/11/09 05:42:13;;;;;;;;;;;;;;;7.61;100.00;101938.60;102522;1315;72029;-78
2021/11/09 05:44:40;;;;;;;;;;;;;;;7.61;99.96;101941.63;102586;1319;60575;-76
2021/11/09 05:47:07;;;;;;;;;;;;;;;7.60;99.89;101944.36;102488;1316;61187;-77
2021/11/09 05:49:36;;;;;;;;;;;;;;;7.57;99.87;101944.29;102591;1315;59612;-78
2021/11/09 05:52:12;;;;;;;;;;;;;;;7.55;99.98;101948.05;102549;1315;71327;-78
2021/11/09 05:54:39;;;;;;;;;;;;;;;7.54;99.74;101946.06;102690;1316;73021;-78
2021/11/09 05:57:06;;;;;;;;;;;;;;;7.54;100.00;101949.75;102784;1315;63229;-78
2021/11/09 05:59:32;;;;;;;;;;;;;;;7.54;99.97;101951.82;102801;1315;62785;-77
2021/11/09 06:01:59;;;;;;;;;;;;;;;7.55;100.00;101954.75;102866;1316;72023;-76
2021/11/09 06:04:26;;;;;;;;;;;;;;;7.58;100.00;101955.96;102952;1315;71392;-77
2021/11/09 06:06:53;;;;;;;;;;;;;;;7.60;99.96;101957.06;102739;1315;72036;-78
2021/11/09 06:09:31;;;;;;;;;;;;;;;;;;;;;
2021/11/09 06:11:58;;;;;;;;;;;;;;;7.61;100.00;101961.83;102668;1316;60804;-77
2021/11/09 06:14:25;;;;;;;;;;;;;;;7.63;99.98;101964.19;102520;1316;60135;-77
2021/11/09 06:17:05;;;;;;;;;;;;;;;7.64;100.00;101968.48;102685;1315;71953;-77
2021/11/09 06:19:32;;;;;;;;;;;;;;;7.64;100.00;101972.52;102641;1316;72962;-78
2021/11/09 06:22:02;;;;;;;;;;;;;;;7.65;99.98;101973.66;102499;1315;61675;-77
2021/11/09 06:24:31;;;;;;;;;;;;;;;7.66;99.99;101980.31;102594;1315;60415;-77
2021/11/09 06:26:58;;;;;;;;;;;;;;;7.67;99.92;101979.17;102484;1313;75449;-77
2021/11/09 06:29:25;;;;;;;;;;;;;;;7.68;99.98;101982.21;102654;1315;71564;-72
2021/11/09 06:31:55;;;;;;;;;;;;;;;7.70;99.95;101980.45;102563;1316;72959;-73
2021/11/09 06:34:22;;;;;;;;;;;;;;;7.73;100.00;101985.64;102524;1316;62042;-73
2021/11/09 06:36:49;;;;;;;;;;;;;;;7.77;99.79;101981.14;102480;1316;59708;-73
2021/11/09 06:39:18;;;;;;;;;;;;;;;7.78;99.60;101979.48;102408;1316;73287;-77
2021/11/09 06:41:47;;;;;;;;;;;;;;;7.79;99.41;101983.35;102367;1316;72384;-76
2021/11/09 06:44:17;;;;;;;;;;;;;;;7.78;99.61;101991.27;102331;1316;72046;-74
2021/11/09 06:46:43;;;;;;;;;;;;;;;7.78;99.32;101993.92;102451;1317;63149;-73
2021/11/09 06:49:10;;;;;;;;;;;;;;;7.78;99.05;101999.74;102438;1316;59690;-74
2021/11/09 06:51:36;;;;;;;;;;;;;;;7.80;99.49;101999.99;102437;1316;60555;-73
2021/11/09 06:54:03;;;;;;;;;;;;;;;7.82;99.82;102007.33;102559;1316;60104;-74
2021/11/09 06:56:41;;;;;;;;;;;;;;;7.84;99.63;102011.22;102154;1319;72999;-74
2021/11/09 06:59:07;;;;;;;;;;;;;;;7.85;99.26;102011.70;102394;1315;60607;-73
2021/11/09 07:01:35;;;;;;;;;;;;;;;7.85;99.49;102018.05;102366;1315;61120;-74
2021/11/09 07:04:02;;;;;;;;;;;;;;;7.84;99.13;102018.45;102661;1315;73017;-73
2021/11/09 07:06:28;;;;;;;;;;;;;;;7.85;99.17;102019.84;102537;1316;71380;-73
2021/11/09 07:08:55;;;;;;;;;;;;;;;7.85;99.26;102023.63;102457;1316;74015;-73
2021/11/09 07:11:21;;;;;;;;;;;;;;;7.87;98.78;102025.84;102549;1315;60133;-75
2021/11/09 07:13:48;;;;;;;;;;;;;;;7.88;99.24;102028.15;102553;1315;59722;-73
2021/11/09 07:16:15;;;;;;;;;;;;;;;7.91;99.19;102029.55;102332;1316;59763;-74
2021/11/09 07:18:42;;;;;;;;;;;;;;;7.94;98.84;102030.19;102491;1315;71439;-75
2021/11/09 07:21:09;;;;;;;;;;;;;;;7.98;98.81;102041.08;102375;1316;72949;-75
2021/11/09 07:23:54;;;;;;;;;;;;;;;;;;;;;
2021/11/09 07:26:21;;;;;;;;;;;;;;;8.06;98.44;102045.40;102302;1316;61506;-74
2021/11/09 07:28:48;;;;;;;;;;;;;;;8.06;97.84;102047.46;102225;1318;59600;-75
2021/11/09 07:31:16;;;;;;;;;;;;;;;8.09;97.89;102049.69;102264;1321;71419;-76
2021/11/09 07:33:43;;;;;;;;;;;;;;;8.12;97.41;102052.64;102432;1315;71272;-75
2021/11/09 07:36:10;;;;;;;;;;;;;;;8.15;97.02;102053.78;102423;1316;63250;-75
2021/11/09 07:38:39;;;;;;;;;;;;;;;8.19;97.00;102058.92;102508;1313;60343;-75
2021/11/09 07:41:08;;;;;;;;;;;;;;;8.22;96.41;102062.96;102484;1316;74134;-76
2021/11/09 07:43:35;;;;;;;;;;;;;;;8.26;96.40;102061.01;102624;1312;70757;-76
2021/11/09 07:46:02;;;;;;;;;;;;;;;8.30;96.35;102062.62;102592;1313;73268;-76
2021/11/09 07:48:28;;;;;;;;;;;;;;;8.35;95.78;102063.12;102585;1312;62342;-74
2021/11/09 07:51:01;;;;;;;;;;;;;;;8.40;95.65;102061.63;102587;1314;61636;-76
2021/11/09 07:53:34;;;;;;;;;;;;;;;8.44;95.35;102066.23;102561;1313;73498;-75
2021/11/09 07:56:20;;;;;;;;;;;;;;;8.48;95.19;102068.39;102582;1313;71268;-74
2021/11/09 08:01:32;;;;;;;;;;;;;;;8.57;94.14;102074.73;102598;1313;62215;-74
2021/11/09 08:04:14;;;;;;;;;;;;;;;8.61;93.83;102074.27;102646;1313;59788;-75
2021/11/09 08:06:46;;;;;;;;;;;;;;;8.65;93.29;102076.72;102545;1317;73789;-76
2021/11/09 08:09:26;;;;;;;;;;;;;;;8.69;93.17;102079.49;102585;1313;71406;-75
2021/11/09 08:11:54;;;;;;;;;;;;;;;8.75;93.08;102079.95;102589;1312;74285;-75
2021/11/09 08:14:22;;;;;;;;;;;;;;;8.80;92.90;102075.98;102503;1315;62387;-75
2021/11/09 08:16:49;;;;;;;;;;;;;;;8.86;92.35;102082.36;102725;1312;60303;-76
2021/11/09 08:19:17;;;;;;;;;;;;;;;8.88;91.53;102082.37;102551;1312;74360;-75
2021/11/09 08:21:44;;;;;;;;;;;;;;;8.90;91.43;102079.31;102636;1313;72666;-74
2021/11/09 08:24:13;;;;;;;;;;;;;;;8.92;91.38;102080.08;102504;1315;72943;-75
2021/11/09 08:26:40;;;;;;;;;;;;;;;8.90;90.79;102085.15;102739;1312;61775;-75
2021/11/09 08:29:06;;;;;;;;;;;;;;;8.87;91.21;102090.34;102449;1314;60661;-75
2021/11/09 08:31:34;;;;;;;;;;;;;;;8.84;90.89;102094.47;102323;1315;59707;-75
2021/11/09 08:34:14;;;;;;;;;;;;;;;;;;;;;
2021/11/09 08:36:45;;;;;;;;;;;;;;;8.77;90.99;102097.56;102601;1312;73122;-74
2021/11/09 08:39:17;;;;;;;;;;;;;;;8.73;90.88;102097.53;103226;1313;61410;-75
2021/11/09 08:41:51;;;;;;;;;;;;;;;8.70;90.88;102094.77;102776;1313;60977;-75
2021/11/09 08:44:27;;;;;;;;;;;;;;;8.69;91.00;102096.48;102572;1311;73450;-76
2021/11/09 08:47:00;;;;;;;;;;;;;;;8.73;91.31;102096.69;102526;1313;71438;-75
2021/11/09 08:49:30;;;;;;;;;;;;;;;8.79;91.54;102092.81;102771;1312;71854;-75
2021/11/09 08:51:59;;;;;;;;;;;;;;;8.85;91.01;102091.12;102606;1313;60902;-75
2021/11/09 08:54:31;;;;;;;;;;;;;;;8.91;91.46;102085.95;102587;1314;60318;-76
2021/11/09 08:57:21;;;;;;;;;;;;;;;8.97;90.91;102084.02;102491;1312;73292;-75
2021/11/09 09:05:10;;;;;;;;;;;;;;;9.10;89.22;102091.23;102529;1313;63866;-75
2021/11/09 09:07:37;;;;;;;;;;;;;;;9.16;89.32;102095.70;102609;1313;61366;-74
2021/11/09 09:10:05;;;;;;;;;;;;;;;9.23;88.82;102094.54;102628;1313;74455;-74
2021/11/09 09:12:34;;;;;;;;;;;;;;;9.30;88.33;102100.36;102553;1313;72089;-76
2021/11/09 09:15:32;;;;;;;;;;;;;;;;;;;;;
2021/11/09 09:18:09;;;;;;;;;;;;;;;9.52;88.41;102102.96;102724;1313;62978;-77
2021/11/09 09:20:50;;;;;;;;;;;;;;;9.65;87.52;102101.02;102765;1314;60038;-78
2021/11/09 09:23:21;;;;;;;;;;;;;;;9.75;85.77;102102.95;102703;1313;73273;-76
2021/11/09 09:28:41;;;;;;;;;;;;;;;9.92;84.30;102106.73;102634;1312;73432;-76
2021/11/09 09:53:43;;;;;;;;;;;;;;;10.47;78.95;102105.39;102733;1313;71031;-78
2021/11/09 09:56:18;;;;;;;;;;;;;;;10.55;78.94;102109.98;102600;1316;73983;-76
2021/11/09 09:58:44;;;;;;;;;;;;;;;10.61;78.57;102113.49;102627;1319;60466;-76
2021/11/09 10:01:20;;;;;;;;;;;;;;;10.66;78.33;102111.77;102732;1312;60567;-77
2021/11/09 10:03:54;;;;;;;;;;;;;;;10.70;77.07;102109.17;102652;1313;74567;-77
2021/11/09 10:06:21;;;;;;;;;;;;;;;10.75;76.55;102105.10;102648;1312;71477;-78
2021/11/09 10:08:50;;;;;;;;;;;;;;;10.80;76.13;102103.96;102543;1317;74189;-76
2021/11/09 10:11:30;;;;;;;;;;;;;;;10.85;74.93;102101.92;102705;1315;60638;-75
2021/11/09 10:13:59;;;;;;;;;;;;;;;10.87;74.85;102101.89;102671;1313;61595;-74
2021/11/09 10:16:26;;;;;;;;;;;;;;;10.87;74.40;102099.80;102770;1313;74778;-75
2021/11/09 10:18:53;;;;;;;;;;;;;;;10.86;74.52;102097.95;102599;1314;70336;-75
2021/11/09 10:21:20;;;;;;;;;;;;;;;10.89;75.14;102096.05;102647;1312;59292;-75
2021/11/09 10:23:47;;;;;;;;;;;;;;;10.93;74.46;102095.88;102559;1313;63146;-75
2021/11/09 10:26:15;;;;;;;;;;;;;;;10.94;73.08;102099.14;102435;1313;61214;-74
2021/11/09 10:28:46;;;;;;;;;;;;;;;10.94;72.66;102097.17;102541;1313;75309;-75
2021/11/09 10:31:15;;;;;;;;;;;;;;;10.96;72.17;102098.08;102589;1313;72593;-72
2021/11/09 10:33:46;;;;;;;;;;;;;;;10.99;72.10;102090.69;102565;1314;74050;-75
2021/11/09 10:36:20;;;;;;;;;;;;;;;11.03;72.19;102092.05;102558;1313;61659;-74
2021/11/09 10:38:49;;;;;;;;;;;;;;;11.06;71.69;102091.31;102563;1313;60647;-75
2021/11/09 10:41:17;;;;;;;;;;;;;;;11.07;70.20;102086.45;102574;1311;74125;-74
2021/11/09 10:44:03;;;;;;;;;;;;;;;11.09;70.55;102086.55;102342;1319;72566;-75
2021/11/09 10:46:30;;;;;;;;;;;;;;;11.13;70.44;102086.35;102590;1313;72903;-74
2021/11/09 10:48:58;;;;;;;;;;;;;;;11.21;71.31;102082.80;102573;1316;62083;-73
2021/11/09 10:51:47;;;;;;;;;;;;;;;11.27;70.61;102084.88;102586;1312;60473;-74
2021/11/09 10:54:36;;;;;;;;;;;;;;;11.31;70.33;102082.04;102661;1312;74105;-74
2021/11/09 10:57:16;;;;;;;;;;;;;;;11.38;70.41;102076.77;102503;1313;72408;-74
2021/11/09 11:00:33;;;;;;;;;;;;;;;11.51;70.46;102077.45;102661;1312;72902;-74
2021/11/09 11:05:25;;;;;;;;;;;;;;;11.86;68.32;102080.42;102687;1314;61515;-74
2021/11/09 11:08:00;;;;;;;;;;;;;;;11.96;67.30;102079.55;102593;1313;74313;-75
2021/11/09 11:10:32;;;;;;;;;;;;;;;12.14;65.58;102081.67;102893;1312;71623;-74
2021/11/09 11:13:18;;;;;;;;;;;;;;;12.30;63.41;102081.16;102544;1314;74140;-75
2021/11/09 11:16:05;;;;;;;;;;;;;;;12.53;63.84;102077.41;102551;1319;61923;-75
2021/11/09 11:18:37;;;;;;;;;;;;;;;12.74;63.57;102072.64;102581;1313;60466;-75
2021/11/09 11:21:03;;;;;;;;;;;;;;;12.96;62.77;102074.74;102590;1312;73757;-75
2021/11/09 11:23:36;;;;;;;;;;;;;;;13.13;61.99;102071.52;102638;1314;72579;-74
2021/11/09 11:26:08;;;;;;;;;;;;;;;13.32;61.97;102069.58;102603;1312;72933;-75
2021/11/09 11:28:36;;;;;;;;;;;;;;;13.45;60.39;102068.05;102502;1313;61932;-74
2021/11/09 11:31:04;;;;;;;;;;;;;;;13.64;60.39;102064.31;102733;1312;61488;-74
2021/11/09 11:33:30;;;;;;;;;;;;;;;13.88;59.67;102064.06;102492;1312;75146;-73
2021/11/09 11:35:59;;;;;;;;;;;;;;;14.10;59.00;102064.26;102452;1313;71573;-73
2021/11/09 11:38:26;;;;;;;;;;;;;;;14.40;58.21;102056.41;102663;1312;73942;-74
2021/11/09 11:40:56;;;;;;;;;;;;;;;14.74;56.66;102061.30;102404;1313;61381;-74
2021/11/09 11:43:41;;;;;;;;;;;;;;;14.96;55.43;102050.95;102592;1312;60635;-73
2021/11/09 11:46:15;;;;;;;;;;;;;;;15.22;53.29;102046.70;102508;1312;74938;-74
2021/11/09 11:48:56;;;;;;;;;;;;;;;15.48;52.77;102050.13;102722;1312;71294;-74
2021/11/09 11:51:23;;;;;;;;;;;;;;;15.84;52.30;102049.06;102305;1315;73084;-75
2021/11/09 11:53:54;;;;;;;;;;;;;;;16.24;50.54;102049.50;102512;1312;60491;-75
2021/11/09 11:56:21;;;;;;;;;;;;;;;16.53;49.43;102042.52;102652;1312;61466;-75
2021/11/09 11:58:47;;;;;;;;;;;;;;;16.72;48.11;102047.65;102588;1312;75216;-75
2021/11/09 12:01:34;;;;;;;;;;;;;;;16.75;46.73;102048.19;102628;1315;72874;-76
2021/11/09 12:04:07;;;;;;;;;;;;;;;16.61;46.68;102052.81;102613;1313;72298;-76
2021/11/09 12:06:50;;;;;;;;;;;;;;;16.72;46.98;102048.17;102968;1313;60614;-75
2021/11/09 12:09:34;;;;;;;;;;;;;;;16.85;46.97;102047.71;102569;1312;61632;-75
2021/11/09 12:12:12;;;;;;;;;;;;;;;17.04;46.46;102041.80;102649;1312;75634;-74
2021/11/09 12:14:48;;;;;;;;;;;;;;;17.28;45.13;102034.83;102754;1316;70163;-75
2021/11/09 12:17:33;;;;;;;;;;;;;;;17.76;45.27;102036.15;102573;1313;72883;-74
2021/11/09 12:20:04;;;;;;;;;;;;;;;18.38;43.25;102033.50;102459;1312;61818;-76
2021/11/09 12:22:38;;;;;;;;;;;;;;;18.89;42.44;102026.73;102645;1312;60598;-76
2021/11/09 12:25:06;;;;;;;;;;;;;;;19.67;42.27;102024.52;102641;1316;73937;-75
2021/11/09 12:28:02;;;;;;;;;;;;;;;20.17;39.64;102023.89;102494;1312;72492;-75
2021/11/09 12:30:32;;;;;;;;;;;;;;;19.72;38.96;102023.17;102410;1313;74067;-72
2021/11/09 12:33:02;;;;;;;;;;;;;;;19.56;39.22;102021.55;102567;1313;61592;-73
2021/11/09 12:35:39;;;;;;;;;;;;;;;19.23;38.94;102018.30;102710;1312;60599;-74
2021/11/09 12:38:08;;;;;;;;;;;;;;;19.00;39.60;102014.39;102639;1309;74864;-73
2021/11/09 12:40:43;;;;;;;;;;;;;;;19.53;39.07;102016.08;102580;1312;72582;-73
2021/11/09 12:43:10;;;;;;;;;;;;;;;20.10;38.58;102016.80;102494;1317;74108;-74
2021/11/09 12:45:37;;;;;;;;;;;;;;;20.69;38.66;102010.23;102602;1312;61116;-74
2021/11/09 12:48:05;;;;;;;;;;;;;;;20.99;36.53;102011.88;102484;1315;60935;-72
2021/11/09 12:50:33;;;;;;;;;;;;;;;21.22;34.70;102006.59;102517;1313;75231;-73
2021/11/09 12:53:09;;;;;;;;;;;;;;;21.59;34.04;102002.73;102521;1312;71338;-74
2021/11/09 12:55:37;;;;;;;;;;;;;;;21.92;33.44;102005.50;102417;1315;72920;-74
2021/11/09 12:58:19;;;;;;;;;;;;;;;22.00;32.60;102008.48;102447;1313;60610;-75
2021/11/09 13:01:00;;;;;;;;;;;;;;;22.07;31.82;102005.93;102517;1312;61254;-74
2021/11/09 13:03:44;;;;;;;;;;;;;;;22.14;31.50;102004.63;102619;1313;74107;-75
2021/11/09 13:06:21;;;;;;;;;;;;;;;22.37;31.93;102000.55;102536;1312;72484;-77
2021/11/09 13:08:58;;;;;;;;;;;;;;;22.49;30.94;101998.66;102546;1312;72886;-75
2021/11/09 13:11:42;;;;;;;;;;;;;;;22.75;31.09;101994.33;102495;1312;60684;-76
2021/11/09 13:14:10;;;;;;;;;;;;;;;23.04;30.69;101987.23;102473;1312;61027;-74
2021/11/09 13:16:57;;;;;;;;;;;;;;;23.10;30.65;101988.91;102436;1313;77504;-77
2021/11/09 13:19:35;;;;;;;;;;;;;;;23.04;30.19;101989.64;102542;1311;71858;-76
2021/11/09 13:22:13;;;;;;;;;;;;;;;22.80;30.65;101993.40;102374;1317;73265;-75
2021/11/09 13:24:44;;;;;;;;;;;;;;;22.64;31.51;101990.98;102407;1315;60879;-75
2021/11/09 13:27:12;;;;;;;;;;;;;;;22.17;31.60;101993.80;102423;1313;61498;-75
2021/11/09 13:29:40;;;;;;;;;;;;;;;21.75;33.10;101996.02;102618;1312;74920;-75
2021/11/09 13:32:08;;;;;;;;;;;;;;;21.52;35.50;101993.08;102141;1317;70609;-75
2021/11/09 13:34:49;;;;;;;;;;;;;;;21.47;36.18;101990.73;102585;1312;72794;-74
2021/11/09 13:37:16;;;;;;;;;;;;;;;21.73;37.44;101987.14;102382;1319;62223;-74
2021/11/09 13:39:43;;;;;;;;;;;;;;;21.97;36.06;101982.11;102663;1312;61393;-74
2021/11/09 13:42:09;;;;;;;;;;;;;;;22.09;35.97;101983.40;102570;1313;74239;-74
2021/11/09 13:44:36;;;;;;;;;;;;;;;22.62;35.30;101981.48;102598;1313;60564;-74
2021/11/09 13:47:03;;;;;;;;;;;;;;;23.25;34.97;101977.05;102527;1312;72598;-74
2021/11/09 13:49:37;;;;;;;;;;;;;;;23.87;34.03;101976.43;102475;1312;60501;-72
2021/11/09 13:52:04;;;;;;;;;;;;;;;24.37;32.99;101977.66;102554;1315;60546;-75
2021/11/09 13:54:40;;;;;;;;;;;;;;;24.63;31.93;101975.65;102803;1312;74186;-75
2021/11/09 13:57:08;;;;;;;;;;;;;;;24.73;30.40;101979.13;102658;1317;72658;-75
2021/11/09 13:59:35;;;;;;;;;;;;;;;24.70;30.88;101978.56;102606;1315;73992;-75
2021/11/09 14:02:25;;;;;;;;;;;;;;;24.54;30.83;101984.55;102605;1316;60917;-75
2021/11/09 14:08:30;;;;;;;3.70;1.10;;;;;;;24.39;29.42;101981.05;99820;1348;600202;-77
2021/11/09 14:11:06;;;;;;;;;;;;;;;;;;;;;
2021/11/09 14:17:08;;;;;;;3.70;1.40;;;;;;;22.91;31.15;101978.63;101843;1325;72794;-77
2021/11/09 14:19:39;;;;;;;2.80;1.00;;;;;;;22.53;31.34;101978.61;102364;1317;299987;-80
2021/11/09 14:23:00;;;;;;;8.60;1.40;;;;;;;22.20;32.58;101978.17;102857;1313;73635;-80
2021/11/09 14:26:03;;;;;;;3.40;1.10;;;;;;;22.14;32.40;101973.95;102917;1311;61832;-80
2021/11/09 14:28:46;;;;;;;;;;;;;;;;;;;;;
2021/11/09 14:31:19;;;;;;;4.90;1.60;;;;;;;22.36;32.47;101972.48;103329;1317;72655;-77
2021/11/09 14:34:32;;;;;;;;;;;;;;;;;;;;;
2021/11/09 14:37:24;;;;;;;3.00;1.40;;;;;;;22.47;32.43;101969.73;102546;1316;74158;-77
2021/11/09 14:40:14;;;;;;;3.20;1.20;;;;;;;22.51;32.44;101970.65;102739;1316;59716;-78
2021/11/09 14:46:08;;;;;;;3.90;1.20;;;;;;;23.23;32.37;101970.80;102674;1316;73407;-83
2021/11/09 14:51:18;;;;;;;4.10;1.30;;;;;;;23.21;31.91;101965.88;102839;1316;73975;-79
2021/11/09 14:56:25;;;;;;;3.20;1.10;;;;;;;22.34;32.34;101964.02;103265;1316;60974;-78
2021/11/09 14:58:54;;;;;;;4.90;1.40;;;;;;;21.98;33.41;101964.48;102978;1317;74054;-78
2021/11/09 15:02:00;;;;;;;4.90;1.60;;;;;;;21.67;33.69;101961.92;102882;1316;71591;-76
2021/11/09 15:04:55;;;;;;;8.90;3.80;;;;;;;21.09;34.51;101961.48;102990;1316;73362;-78
2021/11/09 15:11:12;;;;;;;7.60;2.60;;;;;;;20.02;36.73;101964.20;102868;1320;60641;-81
2021/11/09 15:28:54;;;;;;;35.30;17.60;;;;;;;16.04;44.42;101972.41;102609;1313;72308;-78
2021/11/09 15:31:42;;;;;;;;;;;;;;;;;;;;;
2021/11/09 15:34:32;;;;;;;32.40;16.20;;;;;;;14.71;47.72;101975.39;102571;1313;73892;-78
2021/11/09 15:37:33;;;;;;;8.10;1.90;;;;;;;14.10;49.15;101975.11;102448;1316;60771;-75